CheckWX is a tool to help pilots better visualize weather data.  It is not intended as a substitute for an official pre-flight weather briefing.

12:59:52 UTC

EPDA TAF
Darłówek Naval Air Base Airport
Darłowo, Poland
TAF COR EPDA 221155Z 2212/2221 27005KT 9999 BKN020 BECMG 2218/2220 19005KT

Mar-22@
12:00 UTC

Mar-22 @ 12:00 UTC

Mar-22@
18:00 UTC

Mar-22 @ 18:00 UTC

TAF COR EPDA 221155Z 2212/2221 27005KT 9999 BKN020
Wind
  • 270° at 5 KTS
Cloud Levels
  • Broken at 2,000' AGL

Mar-22@
18:00 UTC

Mar-22 @ 18:00 UTC

Mar-22@
21:00 UTC

Mar-22 @ 21:00 UTC

BECMG 2218/2220 19005KT

Becoming

Becoming Conditions expected by Fri, Mar 22, 2019 @ 20:00 UTC

Wind
  • 190° at 5 KTS
Cloud Levels
  • Broken at 2,000' AGL